createdAt,value
2023-09-13T00:00:44.145Z,999.50
2023-09-13T00:01:44.265Z,999.50
2023-09-13T00:02:44.148Z,999.50
2023-09-13T00:03:44.607Z,999.50
2023-09-13T00:04:44.135Z,999.50
2023-09-13T00:05:44.095Z,999.49
2023-09-13T00:06:44.066Z,999.48
2023-09-13T00:07:44.062Z,999.48
2023-09-13T00:08:44.094Z,999.49
2023-09-13T00:09:44.051Z,999.50
2023-09-13T00:10:44.069Z,999.51
2023-09-13T00:11:44.011Z,999.52
2023-09-13T00:12:44.043Z,999.53
2023-09-13T00:13:44.160Z,999.54
2023-09-13T00:14:43.960Z,999.54
2023-09-13T00:15:43.981Z,999.53
2023-09-13T00:16:43.984Z,999.52
2023-09-13T00:17:44.056Z,999.51
2023-09-13T00:18:43.941Z,999.50
2023-09-13T00:19:43.921Z,999.50
2023-09-13T00:20:43.913Z,999.50
2023-09-13T00:21:43.987Z,999.50
2023-09-13T00:22:43.896Z,999.50
2023-09-13T00:23:44.192Z,999.50
2023-09-13T00:24:43.898Z,999.51
2023-09-13T00:25:43.886Z,999.52
2023-09-13T00:26:43.884Z,999.52
2023-09-13T00:27:43.868Z,999.52
2023-09-13T00:28:43.824Z,999.53
2023-09-13T00:29:43.824Z,999.54
2023-09-13T00:30:43.894Z,999.55
2023-09-13T00:31:43.944Z,999.56
2023-09-13T00:32:43.822Z,999.57
2023-09-13T00:33:44.082Z,999.57
2023-09-13T00:34:43.747Z,999.58
2023-09-13T00:35:43.774Z,999.59
2023-09-13T00:36:43.797Z,999.60
2023-09-13T00:37:43.755Z,999.62
2023-09-13T00:38:43.711Z,999.62
2023-09-13T00:39:43.717Z,999.63
2023-09-13T00:40:43.715Z,999.65
2023-09-13T00:41:43.689Z,999.66
2023-09-13T00:42:43.684Z,999.68
2023-09-13T00:43:43.859Z,999.72
2023-09-13T00:44:43.680Z,999.73
2023-09-13T00:45:43.734Z,999.76
2023-09-13T00:46:43.676Z,999.79
2023-09-13T00:47:43.672Z,999.81
2023-09-13T00:48:43.693Z,999.83
2023-09-13T00:49:43.615Z,999.82
2023-09-13T00:50:53.224Z,999.83
2023-09-13T00:51:43.617Z,999.88
2023-09-13T00:52:43.556Z,999.93
2023-09-13T00:53:43.906Z,999.96
2023-09-13T00:54:43.608Z,999.97
2023-09-13T00:55:43.551Z,999.96
2023-09-13T00:56:43.542Z,999.96
2023-09-13T00:57:43.588Z,999.96
2023-09-13T00:58:43.532Z,999.96
2023-09-13T00:59:51.274Z,999.98
2023-09-13T01:00:43.536Z,1000.01
2023-09-13T01:01:43.497Z,1000.04
2023-09-13T01:02:43.553Z,1000.04
2023-09-13T01:03:43.929Z,1000.03
2023-09-13T01:04:43.506Z,1000.00
2023-09-13T01:05:43.437Z,999.98
2023-09-13T01:06:43.488Z,999.95
2023-09-13T01:07:43.397Z,999.93
2023-09-13T01:08:43.455Z,999.94
2023-09-13T01:09:43.441Z,999.96
2023-09-13T01:10:43.369Z,999.95
2023-09-13T01:11:43.389Z,999.94
2023-09-13T01:12:43.431Z,999.96
2023-09-13T01:13:43.633Z,999.99
2023-09-13T01:14:43.345Z,1000.02
2023-09-13T01:15:43.464Z,1000.02
2023-09-13T01:16:43.442Z,1000.03
2023-09-13T01:17:43.401Z,1000.04
2023-09-13T01:18:43.343Z,1000.04
2023-09-13T01:19:43.288Z,1000.04
2023-09-13T01:20:43.285Z,1000.03
2023-09-13T01:21:43.283Z,1000.03
2023-09-13T01:22:43.274Z,1000.04
2023-09-13T01:23:44.112Z,1000.04
2023-09-13T01:24:43.248Z,1000.05
2023-09-13T01:25:43.265Z,1000.05
2023-09-13T01:26:43.237Z,1000.08
2023-09-13T01:27:43.255Z,1000.10
2023-09-13T01:28:43.187Z,1000.12
2023-09-13T01:29:43.184Z,1000.12
2023-09-13T01:30:43.242Z,1000.12
2023-09-13T01:31:43.248Z,1000.12
2023-09-13T01:32:43.152Z,1000.12
2023-09-13T01:33:43.402Z,1000.14
2023-09-13T01:34:43.124Z,1000.14
2023-09-13T01:35:43.161Z,1000.14
2023-09-13T01:36:43.166Z,1000.14
2023-09-13T01:37:43.095Z,1000.15
2023-09-13T01:38:43.104Z,1000.15
2023-09-13T01:39:43.089Z,1000.16
2023-09-13T01:40:43.111Z,1000.17
2023-09-13T01:41:43.070Z,1000.17
2023-09-13T01:42:43.084Z,1000.18
2023-09-13T01:43:43.291Z,1000.19
2023-09-13T01:44:49.542Z,1000.21
2023-09-13T01:45:43.091Z,1000.22
2023-09-13T01:46:43.064Z,1000.24
2023-09-13T01:47:43.004Z,1000.25
2023-09-13T01:48:43.057Z,1000.24
2023-09-13T01:49:42.960Z,1000.24
2023-09-13T01:50:43.002Z,1000.23
2023-09-13T01:51:42.977Z,1000.22
2023-09-13T01:52:42.929Z,1000.21
2023-09-13T01:53:43.239Z,1000.20
2023-09-13T01:54:43.006Z,1000.19
2023-09-13T01:55:42.957Z,1000.19
2023-09-13T01:56:42.889Z,1000.18
2023-09-13T01:57:42.910Z,1000.19
2023-09-13T01:58:42.872Z,1000.18
2023-09-13T01:59:42.914Z,1000.18
2023-09-13T02:00:42.911Z,1000.19
2023-09-13T02:01:42.937Z,1000.21
2023-09-13T02:02:42.863Z,1000.22
2023-09-13T02:03:43.076Z,1000.22
2023-09-13T02:04:42.893Z,1000.23
2023-09-13T02:05:43.611Z,1000.23
2023-09-13T02:06:42.879Z,1000.23
2023-09-13T02:07:42.779Z,1000.22
2023-09-13T02:08:42.834Z,1000.19
2023-09-13T02:09:42.865Z,1000.17
2023-09-13T02:10:42.757Z,1000.16
2023-09-13T02:11:42.801Z,1000.17
2023-09-13T02:12:42.795Z,1000.18
2023-09-13T02:13:43.158Z,1000.18
2023-09-13T02:14:42.720Z,1000.19
2023-09-13T02:15:42.822Z,1000.19
2023-09-13T02:16:42.809Z,1000.18
2023-09-13T02:17:42.803Z,1000.19
2023-09-13T02:18:42.760Z,1000.18
2023-09-13T02:19:42.737Z,1000.17
2023-09-13T02:20:42.645Z,1000.17
2023-09-13T02:21:42.712Z,1000.17
2023-09-13T02:22:42.697Z,1000.17
2023-09-13T02:23:42.862Z,1000.17
2023-09-13T02:24:42.654Z,1000.17
2023-09-13T02:25:42.723Z,1000.17
2023-09-13T02:26:42.616Z,1000.17
2023-09-13T02:27:42.722Z,1000.17
2023-09-13T02:28:42.582Z,1000.17
2023-09-13T02:29:42.587Z,1000.18
2023-09-13T02:30:42.598Z,1000.18
2023-09-13T02:31:42.657Z,1000.18
2023-09-13T02:32:42.626Z,1000.18
2023-09-13T02:33:42.785Z,1000.18
2023-09-13T02:34:42.521Z,1000.18
2023-09-13T02:35:42.509Z,1000.19
2023-09-13T02:36:42.549Z,1000.21
2023-09-13T02:37:42.500Z,1000.21
2023-09-13T02:38:42.463Z,1000.22
2023-09-13T02:39:42.540Z,1000.22
2023-09-13T02:40:42.454Z,1000.23
2023-09-13T02:41:50.326Z,1000.24
2023-09-13T02:42:42.441Z,1000.24
2023-09-13T02:43:42.852Z,1000.23
2023-09-13T02:44:42.427Z,1000.23
2023-09-13T02:45:42.550Z,1000.22
2023-09-13T02:46:42.440Z,1000.21
2023-09-13T02:47:42.406Z,1000.21
2023-09-13T02:48:42.519Z,1000.21
2023-09-13T02:49:42.366Z,1000.20
2023-09-13T02:50:42.418Z,1000.21
2023-09-13T02:51:42.475Z,1000.22
2023-09-13T02:52:42.322Z,1000.22
2023-09-13T02:53:42.605Z,1000.23
2023-09-13T02:54:42.326Z,1000.24
2023-09-13T02:55:42.333Z,1000.25
2023-09-13T02:56:42.296Z,1000.27
2023-09-13T02:57:42.283Z,1000.28
2023-09-13T02:58:42.278Z,1000.29
2023-09-13T02:59:42.296Z,1000.29
2023-09-13T03:00:42.327Z,1000.27
2023-09-13T03:01:42.301Z,1000.26
2023-09-13T03:02:42.298Z,1000.24
2023-09-13T03:03:42.582Z,1000.24
2023-09-13T03:04:42.308Z,1000.24
2023-09-13T03:05:42.217Z,1000.25
2023-09-13T03:06:42.193Z,1000.26
2023-09-13T03:07:42.178Z,1000.29
2023-09-13T03:08:42.188Z,1000.31
2023-09-13T03:09:42.199Z,1000.32
2023-09-13T03:10:42.182Z,1000.34
2023-09-13T03:11:42.127Z,1000.34
2023-09-13T03:12:42.165Z,1000.35
2023-09-13T03:13:42.566Z,1000.35
2023-09-13T03:14:42.129Z,1000.35
2023-09-13T03:15:42.096Z,1000.35
2023-09-13T03:16:42.185Z,1000.36
2023-09-13T03:17:42.119Z,1000.37
2023-09-13T03:18:42.164Z,1000.39
2023-09-13T03:19:42.086Z,1000.39
2023-09-13T03:20:42.061Z,1000.40
2023-09-13T03:21:42.064Z,1000.42
2023-09-13T03:22:42.037Z,1000.42
2023-09-13T03:23:42.354Z,1000.42
2023-09-13T03:24:42.009Z,1000.42
2023-09-13T03:25:42.003Z,1000.41
2023-09-13T03:26:41.970Z,1000.40
2023-09-13T03:27:41.993Z,1000.38
2023-09-13T03:28:41.969Z,1000.38
2023-09-13T03:29:41.935Z,1000.38
2023-09-13T03:30:41.976Z,1000.39
2023-09-13T03:31:41.996Z,1000.40
2023-09-13T03:32:41.955Z,1000.42
2023-09-13T03:33:42.232Z,1000.43
2023-09-13T03:34:41.887Z,1000.43
2023-09-13T03:35:41.886Z,1000.43
2023-09-13T03:36:41.891Z,1000.43
2023-09-13T03:37:41.871Z,1000.44
2023-09-13T03:38:41.841Z,1000.45
2023-09-13T03:39:41.837Z,1000.46
2023-09-13T03:40:41.868Z,1000.48
2023-09-13T03:41:41.850Z,1000.49
2023-09-13T03:42:41.832Z,1000.49
2023-09-13T03:43:42.260Z,1000.49
2023-09-13T03:44:41.789Z,1000.48
2023-09-13T03:45:41.787Z,1000.46
2023-09-13T03:46:41.905Z,1000.46
2023-09-13T03:47:41.830Z,1000.45
2023-09-13T03:48:41.739Z,1000.46
2023-09-13T03:49:41.758Z,1000.46
2023-09-13T03:50:41.745Z,1000.45
2023-09-13T03:51:41.725Z,1000.43
2023-09-13T03:52:41.719Z,1000.42
2023-09-13T03:53:41.745Z,1000.41
2023-09-13T03:54:41.705Z,1000.41
2023-09-13T03:55:41.757Z,1000.41
2023-09-13T03:56:41.664Z,1000.42
2023-09-13T03:57:41.649Z,1000.42
2023-09-13T03:58:41.663Z,1000.41
2023-09-13T03:59:41.615Z,1000.40
2023-09-13T04:00:41.637Z,1000.38
2023-09-13T04:01:41.706Z,1000.36
2023-09-13T04:02:41.646Z,1000.36
2023-09-13T04:03:41.617Z,1000.35
2023-09-13T04:04:41.698Z,1000.35
2023-09-13T04:05:41.642Z,1000.34
2023-09-13T04:06:41.740Z,1000.34
2023-09-13T04:07:41.600Z,1000.33
2023-09-13T04:08:41.541Z,1000.31
2023-09-13T04:09:41.545Z,1000.30
2023-09-13T04:10:41.534Z,1000.29
2023-09-13T04:11:41.504Z,1000.28
2023-09-13T04:12:41.510Z,1000.28
2023-09-13T04:13:41.497Z,1000.28
2023-09-13T04:14:41.505Z,1000.29
2023-09-13T04:15:41.517Z,1000.29
2023-09-13T04:16:41.527Z,1000.29
2023-09-13T04:17:41.486Z,1000.27
2023-09-13T04:18:41.478Z,1000.25
2023-09-13T04:19:41.438Z,1000.23
2023-09-13T04:20:41.415Z,1000.23
2023-09-13T04:21:41.420Z,1000.23
2023-09-13T04:22:41.383Z,1000.23
2023-09-13T04:23:41.413Z,1000.23
2023-09-13T04:24:41.376Z,1000.23
2023-09-13T04:25:41.349Z,1000.24
2023-09-13T04:26:41.372Z,1000.23
2023-09-13T04:27:41.394Z,1000.23
2023-09-13T04:28:41.361Z,1000.24
2023-09-13T04:29:41.347Z,1000.25
2023-09-13T04:30:41.305Z,1000.27
2023-09-13T04:31:41.380Z,1000.28
2023-09-13T04:32:41.420Z,1000.28
2023-09-13T04:33:41.558Z,1000.28
2023-09-13T04:34:41.264Z,1000.28
2023-09-13T04:35:41.289Z,1000.28
2023-09-13T04:36:41.254Z,1000.29
2023-09-13T04:37:41.266Z,1000.30
2023-09-13T04:38:41.173Z,1000.31
2023-09-13T04:39:41.237Z,1000.31
2023-09-13T04:40:41.178Z,1000.31
2023-09-13T04:41:41.226Z,1000.30
2023-09-13T04:42:41.218Z,1000.27
2023-09-13T04:43:41.119Z,1000.26
2023-09-13T04:44:41.147Z,1000.25
2023-09-13T04:45:41.265Z,1000.24
2023-09-13T04:46:41.242Z,1000.26
2023-09-13T04:47:41.235Z,1000.27
2023-09-13T04:48:41.075Z,1000.29
2023-09-13T04:49:41.073Z,1000.29
2023-09-13T04:50:41.050Z,1000.28
2023-09-13T04:51:41.066Z,1000.28
2023-09-13T04:52:41.038Z,1000.27
2023-09-13T04:53:41.037Z,1000.27
2023-09-13T04:54:41.026Z,1000.29
2023-09-13T04:55:41.002Z,1000.31
2023-09-13T04:56:41.057Z,1000.34
2023-09-13T04:57:40.974Z,1000.36
2023-09-13T04:58:41.034Z,1000.38
2023-09-13T04:59:40.970Z,1000.40
2023-09-13T05:00:41.011Z,1000.42
2023-09-13T05:01:41.018Z,1000.44
2023-09-13T05:02:41.100Z,1000.45
2023-09-13T05:03:41.042Z,1000.44
2023-09-13T05:04:40.975Z,1000.44
2023-09-13T05:05:40.930Z,1000.42
2023-09-13T05:06:40.905Z,1000.41
2023-09-13T05:07:40.885Z,1000.40
2023-09-13T05:08:40.881Z,1000.39
2023-09-13T05:09:40.965Z,1000.39
2023-09-13T05:10:40.907Z,1000.40
2023-09-13T05:11:40.849Z,1000.41
2023-09-13T05:12:40.884Z,1000.42
2023-09-13T05:13:40.920Z,1000.42
2023-09-13T05:14:40.881Z,1000.42
2023-09-13T05:15:40.833Z,1000.44
2023-09-13T05:16:40.951Z,1000.44
2023-09-13T05:17:40.836Z,1000.44
2023-09-13T05:18:40.759Z,1000.44
2023-09-13T05:19:40.798Z,1000.45
2023-09-13T05:20:40.756Z,1000.47
2023-09-13T05:21:40.729Z,1000.49
2023-09-13T05:22:40.766Z,1000.50
2023-09-13T05:23:40.697Z,1000.51
2023-09-13T05:24:40.739Z,1000.51
2023-09-13T05:25:40.678Z,1000.51
2023-09-13T05:26:40.676Z,1000.52
2023-09-13T05:27:40.685Z,1000.53
2023-09-13T05:28:40.673Z,1000.54
2023-09-13T05:29:40.660Z,1000.55
2023-09-13T05:30:40.634Z,1000.58
2023-09-13T05:31:40.712Z,1000.59
2023-09-13T05:32:40.656Z,1000.60
2023-09-13T05:33:40.698Z,1000.61
2023-09-13T05:34:40.620Z,1000.62
2023-09-13T05:35:40.573Z,1000.62
2023-09-13T05:36:40.592Z,1000.63
2023-09-13T05:37:40.555Z,1000.62
2023-09-13T05:38:40.605Z,1000.64
2023-09-13T05:39:40.568Z,1000.65
2023-09-13T05:40:40.554Z,1000.66
2023-09-13T05:41:40.514Z,1000.68
2023-09-13T05:42:40.562Z,1000.69
2023-09-13T05:43:40.551Z,1000.68
2023-09-13T05:44:40.496Z,1000.68
2023-09-13T05:45:40.534Z,1000.69
2023-09-13T05:46:40.622Z,1000.70
2023-09-13T05:47:40.538Z,1000.71
2023-09-13T05:48:40.471Z,1000.72
2023-09-13T05:49:40.432Z,1000.73
2023-09-13T05:50:40.424Z,1000.75
2023-09-13T05:51:40.407Z,1000.77
2023-09-13T05:52:40.426Z,1000.79
2023-09-13T05:53:40.399Z,1000.79
2023-09-13T05:54:40.398Z,1000.79
2023-09-13T05:55:40.362Z,1000.80
2023-09-13T05:56:40.394Z,1000.81
2023-09-13T05:57:40.365Z,1000.83
2023-09-13T05:58:40.347Z,1000.84
2023-09-13T05:59:40.323Z,1000.85
2023-09-13T06:00:40.348Z,1000.85
2023-09-13T06:01:40.633Z,1000.85
2023-09-13T06:02:40.305Z,1000.84
2023-09-13T06:03:40.355Z,1000.86
2023-09-13T06:04:40.369Z,1000.88
2023-09-13T06:05:40.253Z,1000.91
2023-09-13T06:06:40.272Z,1000.93
2023-09-13T06:07:40.235Z,1000.93
2023-09-13T06:08:40.228Z,1000.94
2023-09-13T06:09:40.311Z,1000.93
2023-09-13T06:10:40.272Z,1000.93
2023-09-13T06:11:40.254Z,1000.91
2023-09-13T06:12:40.209Z,1000.91
2023-09-13T06:13:40.168Z,1000.92
2023-09-13T06:14:40.194Z,1000.95
2023-09-13T06:15:40.271Z,1000.97
2023-09-13T06:16:40.382Z,1000.99
2023-09-13T06:17:40.157Z,1001.00
2023-09-13T06:18:40.165Z,1001.03
2023-09-13T06:19:40.119Z,1001.04
2023-09-13T06:20:40.135Z,1001.04
2023-09-13T06:21:40.096Z,1001.04
2023-09-13T06:22:40.121Z,1001.05
2023-09-13T06:23:40.351Z,1001.06
2023-09-13T06:24:40.092Z,1001.07
2023-09-13T06:25:40.129Z,1001.09
2023-09-13T06:26:40.053Z,1001.10
2023-09-13T06:27:40.029Z,1001.11
2023-09-13T06:28:40.127Z,1001.12
2023-09-13T06:29:40.052Z,1001.13
2023-09-13T06:30:56.901Z,1001.13
2023-09-13T06:31:55.577Z,1001.13
2023-09-13T06:32:42.252Z,1001.13
2023-09-13T06:33:42.803Z,1001.14
2023-09-13T06:34:40.167Z,1001.14
2023-09-13T06:35:40.171Z,1001.13
2023-09-13T06:36:40.700Z,1001.14
2023-09-13T06:37:40.719Z,1001.13
2023-09-13T06:38:40.896Z,1001.13
2023-09-13T06:39:40.591Z,1001.13
2023-09-13T06:40:40.753Z,1001.15
2023-09-13T06:41:40.093Z,1001.14
2023-09-13T06:42:53.496Z,1001.16
2023-09-13T06:43:53.981Z,1001.17
2023-09-13T06:44:46.586Z,1001.17
2023-09-13T06:45:55.765Z,1001.18
2023-09-13T06:46:41.564Z,1001.17
2023-09-13T06:47:40.081Z,1001.19
2023-09-13T06:48:40.938Z,1001.19
2023-09-13T06:49:41.050Z,1001.20
2023-09-13T06:51:11.330Z,1001.21
2023-09-13T06:52:53.974Z,1001.23
2023-09-13T06:53:41.127Z,1001.22
2023-09-13T06:54:40.572Z,1001.25
2023-09-13T06:55:41.486Z,1001.24
2023-09-13T06:56:41.372Z,1001.24
2023-09-13T06:57:41.258Z,1001.24
2023-09-13T06:58:43.026Z,1001.24
2023-09-13T06:59:52.052Z,1001.26
2023-09-13T07:00:48.332Z,1001.28
2023-09-13T07:02:06.285Z,1001.31
2023-09-13T07:02:41.746Z,1001.32
2023-09-13T07:03:41.021Z,1001.33
2023-09-13T07:04:42.039Z,1001.34
2023-09-13T07:05:39.651Z,1001.35
2023-09-13T07:06:39.737Z,1001.35
2023-09-13T07:07:39.657Z,1001.35
2023-09-13T07:08:39.624Z,1001.34
2023-09-13T07:09:39.636Z,1001.34
2023-09-13T07:10:39.636Z,1001.33
2023-09-13T07:11:39.608Z,1001.33
2023-09-13T07:12:39.544Z,1001.36
2023-09-13T07:13:39.636Z,1001.37
2023-09-13T07:14:39.547Z,1001.38
2023-09-13T07:15:39.524Z,1001.39
2023-09-13T07:16:39.583Z,1001.38
2023-09-13T07:17:39.631Z,1001.38
2023-09-13T07:18:39.559Z,1001.40
2023-09-13T07:19:39.528Z,1001.43
2023-09-13T07:20:39.477Z,1001.45
2023-09-13T07:21:40.512Z,1001.46
2023-09-13T07:22:39.495Z,1001.47
2023-09-13T07:23:39.529Z,1001.47
2023-09-13T07:24:39.445Z,1001.49
2023-09-13T07:25:39.534Z,1001.50
2023-09-13T07:26:39.514Z,1001.48
2023-09-13T07:27:39.447Z,1001.45
2023-09-13T07:28:39.500Z,1001.43
2023-09-13T07:29:39.410Z,1001.45
2023-09-13T07:30:39.567Z,1001.43
2023-09-13T07:31:39.476Z,1001.45
2023-09-13T07:32:39.429Z,1001.44
2023-09-13T07:33:39.380Z,1001.45
2023-09-13T07:34:39.410Z,1001.44
2023-09-13T07:35:39.348Z,1001.46
2023-09-13T07:36:39.331Z,1001.48
2023-09-13T07:37:39.344Z,1001.50
2023-09-13T07:38:39.291Z,1001.52
2023-09-13T07:39:39.327Z,1001.53
2023-09-13T07:40:39.280Z,1001.54
2023-09-13T07:41:39.256Z,1001.60
2023-09-13T07:42:39.237Z,1001.59
2023-09-13T07:43:39.260Z,1001.65
2023-09-13T07:44:39.243Z,1001.65
2023-09-13T07:45:39.238Z,1001.65
2023-09-13T07:46:39.262Z,1001.69
2023-09-13T07:47:39.222Z,1001.69
2023-09-13T07:48:39.202Z,1001.69
2023-09-13T07:49:39.302Z,1001.69
2023-09-13T07:50:39.152Z,1001.76
2023-09-13T07:51:39.187Z,1001.77
2023-09-13T07:53:03.304Z,1001.77
2023-09-13T07:53:39.217Z,1001.82
2023-09-13T07:54:39.103Z,1001.79
2023-09-13T07:55:39.148Z,1001.81
2023-09-13T07:56:39.117Z,1001.85
2023-09-13T07:57:39.115Z,1001.84
2023-09-13T07:58:39.117Z,1001.86
2023-09-13T07:59:39.065Z,1001.83
2023-09-13T08:00:39.135Z,1001.84
2023-09-13T08:01:39.098Z,1001.82
2023-09-13T08:02:39.072Z,1001.85
2023-09-13T08:03:39.152Z,1001.84
2023-09-13T08:04:39.128Z,1001.82
2023-09-13T08:05:39.043Z,1001.84
2023-09-13T08:06:39.034Z,1001.85
2023-09-13T08:07:39.027Z,1001.85
2023-09-13T08:08:38.991Z,1001.86
2023-09-13T08:09:38.992Z,1001.86
2023-09-13T08:10:38.998Z,1001.88
2023-09-13T08:11:38.935Z,1001.88
2023-09-13T08:12:39.011Z,1001.92
2023-09-13T08:13:38.940Z,1001.95
2023-09-13T08:14:38.908Z,1001.95
2023-09-13T08:15:48.957Z,1001.99
2023-09-13T08:16:38.970Z,1002.00
2023-09-13T08:17:38.954Z,1002.03
2023-09-13T08:18:38.892Z,1002.04
2023-09-13T08:19:38.872Z,1002.08
2023-09-13T08:20:38.885Z,1002.11
2023-09-13T08:21:38.875Z,1002.13
2023-09-13T08:22:40.627Z,1002.15
2023-09-13T08:23:38.832Z,1002.15
2023-09-13T08:24:38.792Z,1002.17
2023-09-13T08:25:38.829Z,1002.16
2023-09-13T08:26:38.828Z,1002.17
2023-09-13T08:27:38.776Z,1002.15
2023-09-13T08:28:38.778Z,1002.17
2023-09-13T08:29:38.759Z,1002.16
2023-09-13T08:30:38.801Z,1002.18
2023-09-13T08:31:38.788Z,1002.20
2023-09-13T08:32:38.713Z,1002.22
2023-09-13T08:33:38.711Z,1002.23
2023-09-13T08:34:38.715Z,1002.24
2023-09-13T08:35:38.699Z,1002.27
2023-09-13T08:36:38.671Z,1002.27
2023-09-13T08:37:38.669Z,1002.30
2023-09-13T08:38:38.634Z,1002.33
2023-09-13T08:39:38.649Z,1002.36
2023-09-13T08:40:38.670Z,1002.37
2023-09-13T08:41:38.623Z,1002.45
2023-09-13T08:42:38.599Z,1002.65
2023-09-13T08:43:38.643Z,1002.66
2023-09-13T08:44:38.623Z,1002.72
2023-09-13T08:45:38.588Z,1002.70
2023-09-13T08:46:38.813Z,1002.78
2023-09-13T08:47:50.692Z,1002.81
2023-09-13T08:48:38.609Z,1002.85
2023-09-13T08:49:38.722Z,1002.89
2023-09-13T08:50:38.529Z,1002.88
2023-09-13T08:51:38.541Z,1002.92
2023-09-13T08:52:38.548Z,1002.93
2023-09-13T08:53:38.588Z,1002.99
2023-09-13T08:54:55.501Z,1003.07
2023-09-13T08:55:38.616Z,1003.12
2023-09-13T08:56:38.471Z,1003.18
2023-09-13T08:57:38.461Z,1003.18
2023-09-13T08:58:38.491Z,1003.25
2023-09-13T08:59:38.576Z,1003.25
2023-09-13T09:00:38.541Z,1003.30
2023-09-13T09:01:38.496Z,1003.33
2023-09-13T09:02:38.524Z,1003.35
2023-09-13T09:03:39.122Z,1003.33
2023-09-13T09:04:38.413Z,1003.37
2023-09-13T09:05:38.408Z,1003.42
2023-09-13T09:06:38.350Z,1003.44
2023-09-13T09:07:38.463Z,1003.44
2023-09-13T09:08:38.363Z,1003.52
2023-09-13T09:09:38.343Z,1003.42
2023-09-13T09:10:38.352Z,1003.50
2023-09-13T09:11:38.320Z,1003.53
2023-09-13T09:12:38.309Z,1003.47
2023-09-13T09:13:38.287Z,1003.49
2023-09-13T09:14:38.298Z,1003.55
2023-09-13T09:15:38.312Z,1003.52
2023-09-13T09:16:38.297Z,1003.59
2023-09-13T09:17:38.315Z,1003.63
2023-09-13T09:18:38.237Z,1003.66
2023-09-13T09:19:38.269Z,1003.68
2023-09-13T09:20:38.248Z,1003.74
2023-09-13T09:21:38.346Z,1003.75
2023-09-13T09:22:38.270Z,1003.76
2023-09-13T09:23:38.187Z,1003.78
2023-09-13T09:24:38.220Z,1003.81
2023-09-13T09:25:38.167Z,1003.80
2023-09-13T09:26:38.209Z,1003.84
2023-09-13T09:27:38.122Z,1003.80
2023-09-13T09:28:38.174Z,1003.82
2023-09-13T09:29:38.182Z,1003.83
2023-09-13T09:30:38.099Z,1003.83
2023-09-13T09:31:38.252Z,1003.81
2023-09-13T09:32:38.270Z,1003.84
2023-09-13T09:33:38.056Z,1003.80
2023-09-13T09:34:38.106Z,1003.81
2023-09-13T09:35:38.141Z,1003.86
2023-09-13T09:36:38.075Z,1003.78
2023-09-13T09:37:38.103Z,1003.75
2023-09-13T09:38:38.027Z,1003.77
2023-09-13T09:39:38.060Z,1003.73
2023-09-13T09:40:38.064Z,1003.71
2023-09-13T09:41:38.012Z,1003.74
2023-09-13T09:42:37.991Z,1003.68
2023-09-13T09:43:37.991Z,1003.65
2023-09-13T09:44:37.969Z,1003.72
2023-09-13T09:45:37.969Z,1003.64
2023-09-13T09:46:37.994Z,1003.69
2023-09-13T09:47:37.929Z,1003.67
2023-09-13T09:48:37.921Z,1003.71
2023-09-13T09:49:37.937Z,1003.69
2023-09-13T09:50:37.910Z,1003.73
2023-09-13T09:51:37.920Z,1003.74
2023-09-13T09:52:37.905Z,1003.81
2023-09-13T09:53:37.859Z,1003.89
2023-09-13T09:54:37.959Z,1003.94
2023-09-13T09:55:37.852Z,1003.93
2023-09-13T09:56:37.864Z,1003.95
2023-09-13T09:57:37.814Z,1003.95
2023-09-13T09:58:37.840Z,1003.99
2023-09-13T09:59:37.888Z,1004.02
2023-09-13T10:00:37.861Z,1004.04
2023-09-13T10:01:37.851Z,1004.08
2023-09-13T10:02:37.824Z,1004.11
2023-09-13T10:03:38.076Z,1004.08
2023-09-13T10:04:37.813Z,1004.09
2023-09-13T10:05:37.744Z,1004.14
2023-09-13T10:06:37.718Z,1004.12
2023-09-13T10:07:37.732Z,1004.15
2023-09-13T10:08:37.719Z,1004.12
2023-09-13T10:09:37.695Z,1004.18
2023-09-13T10:10:37.703Z,1004.17
2023-09-13T10:11:37.672Z,1004.20
2023-09-13T10:12:37.638Z,1004.19
2023-09-13T10:13:37.709Z,1004.28
2023-09-13T10:14:37.622Z,1004.31
2023-09-13T10:15:37.655Z,1004.33
2023-09-13T10:16:37.648Z,1004.35
2023-09-13T10:17:37.653Z,1004.34
2023-09-13T10:18:37.644Z,1004.37
2023-09-13T10:19:37.623Z,1004.38
2023-09-13T10:20:37.552Z,1004.37
2023-09-13T10:21:37.575Z,1004.36
2023-09-13T10:22:37.650Z,1004.35
2023-09-13T10:23:37.530Z,1004.35
2023-09-13T10:24:37.537Z,1004.34
2023-09-13T10:25:37.546Z,1004.36
2023-09-13T10:26:37.532Z,1004.38
2023-09-13T10:27:37.545Z,1004.37
2023-09-13T10:28:37.504Z,1004.35
2023-09-13T10:29:37.482Z,1004.37
2023-09-13T10:30:37.576Z,1004.31
2023-09-13T10:31:37.546Z,1004.44
2023-09-13T10:32:37.527Z,1004.41
2023-09-13T10:33:37.428Z,1004.49
2023-09-13T10:34:37.433Z,1004.45
2023-09-13T10:35:37.433Z,1004.52
2023-09-13T10:36:37.429Z,1004.51
2023-09-13T10:37:37.408Z,1004.52
2023-09-13T10:38:37.372Z,1004.56
2023-09-13T10:39:37.392Z,1004.58
2023-09-13T10:40:37.425Z,1004.64
2023-09-13T10:41:37.432Z,1004.62
2023-09-13T10:42:37.335Z,1004.64
2023-09-13T10:43:37.383Z,1004.62
2023-09-13T10:44:37.311Z,1004.63
2023-09-13T10:45:37.304Z,1004.61
2023-09-13T10:46:37.394Z,1004.66
2023-09-13T10:47:37.440Z,1004.68
2023-09-13T10:48:37.403Z,1004.65
2023-09-13T10:49:37.268Z,1004.65
2023-09-13T10:50:37.289Z,1004.70
2023-09-13T10:51:37.288Z,1004.69
2023-09-13T10:52:37.233Z,1004.74
2023-09-13T10:53:37.219Z,1004.76
2023-09-13T10:54:37.266Z,1004.73
2023-09-13T10:55:37.214Z,1004.72
2023-09-13T10:56:37.180Z,1004.73
2023-09-13T10:57:37.208Z,1004.71
2023-09-13T10:58:37.175Z,1004.66
2023-09-13T10:59:37.160Z,1004.67
2023-09-13T11:00:37.174Z,1004.61
2023-09-13T11:01:37.203Z,1004.61
2023-09-13T11:02:37.356Z,1004.63
2023-09-13T11:03:37.209Z,1004.63
2023-09-13T11:04:37.121Z,1004.59
2023-09-13T11:05:37.105Z,1004.63
2023-09-13T11:06:37.088Z,1004.63
2023-09-13T11:07:37.078Z,1004.63
2023-09-13T11:08:37.066Z,1004.67
2023-09-13T11:09:37.080Z,1004.70
2023-09-13T11:10:37.116Z,1004.79
2023-09-13T11:11:37.047Z,1004.80
2023-09-13T11:12:37.010Z,1004.85
2023-09-13T11:13:37.023Z,1004.81
2023-09-13T11:14:37.065Z,1004.90
2023-09-13T11:15:37.016Z,1004.88
2023-09-13T11:16:37.081Z,1004.94
2023-09-13T11:17:37.089Z,1004.95
2023-09-13T11:18:36.945Z,1004.95
2023-09-13T11:19:36.971Z,1004.95
2023-09-13T11:20:36.954Z,1005.01
2023-09-13T11:21:36.915Z,1005.02
2023-09-13T11:22:36.940Z,1005.04
2023-09-13T11:23:36.953Z,1005.06
2023-09-13T11:24:48.750Z,1005.11
2023-09-13T11:25:52.335Z,1005.14
2023-09-13T11:26:38.440Z,1005.14
2023-09-13T11:27:36.859Z,1005.18
2023-09-13T11:28:36.976Z,1005.18
2023-09-13T11:29:36.857Z,1005.19
2023-09-13T11:30:36.833Z,1005.21
2023-09-13T11:31:36.852Z,1005.22
2023-09-13T11:32:36.825Z,1005.27
2023-09-13T11:33:36.868Z,1005.25
2023-09-13T11:34:36.809Z,1005.27
2023-09-13T11:35:36.772Z,1005.26
2023-09-13T11:36:36.765Z,1005.27
2023-09-13T11:37:36.787Z,1005.32
2023-09-13T11:38:36.778Z,1005.30
2023-09-13T11:39:36.744Z,1005.35
2023-09-13T11:40:36.727Z,1005.39
2023-09-13T11:41:51.413Z,1005.39
2023-09-13T11:42:36.760Z,1005.42
2023-09-13T11:43:36.750Z,1005.43
2023-09-13T11:44:36.719Z,1005.48
2023-09-13T11:45:36.753Z,1005.50
2023-09-13T11:46:36.801Z,1005.54
2023-09-13T11:47:36.933Z,1005.55
2023-09-13T11:48:53.381Z,1005.59
2023-09-13T11:49:38.353Z,1005.61
2023-09-13T11:50:46.482Z,1005.61
2023-09-13T11:51:50.516Z,1005.64
2023-09-13T11:53:37.677Z,1005.69
2023-09-13T11:54:36.660Z,1005.69
2023-09-13T11:55:38.368Z,1005.69
2023-09-13T11:56:45.575Z,1005.69
2023-09-13T11:57:54.706Z,1005.69
2023-09-13T11:58:44.926Z,1005.70
2023-09-13T11:59:36.722Z,1005.72
2023-09-13T12:00:37.061Z,1005.70
2023-09-13T12:01:38.322Z,1005.71
2023-09-13T12:02:37.767Z,1005.70
2023-09-13T12:04:23.208Z,1005.75
2023-09-13T12:04:54.502Z,1005.74
2023-09-13T12:06:37.172Z,1005.78
2023-09-13T12:07:38.937Z,1005.80
2023-09-13T12:08:37.271Z,1005.80
2023-09-13T12:09:39.140Z,1005.81
2023-09-13T12:10:37.623Z,1005.85